sensor_id;sensor_type;location;lat;lon;timestamp;pressure;altitude;pressure_sealevel;temperature;humidity
76195;BME280;64964;48.694;21.206;2023-11-21T00:00:14;97320.94;;;6.22;81.08
76195;BME280;64964;48.694;21.206;2023-11-21T00:02:41;97334.91;;;6.31;81.07
76195;BME280;64964;48.694;21.206;2023-11-21T00:05:10;97323.25;;;6.25;80.85
76195;BME280;64964;48.694;21.206;2023-11-21T00:07:36;97331.31;;;6.32;81.01
76195;BME280;64964;48.694;21.206;2023-11-21T00:10:03;97324.06;;;6.26;81.14
76195;BME280;64964;48.694;21.206;2023-11-21T00:12:30;97325.91;;;6.33;80.88
76195;BME280;64964;48.694;21.206;2023-11-21T00:14:56;97315.56;;;6.32;80.79
76195;BME280;64964;48.694;21.206;2023-11-21T00:17:22;97332.31;;;6.39;80.77
76195;BME280;64964;48.694;21.206;2023-11-21T00:19:47;97336.91;;;6.37;80.31
76195;BME280;64964;48.694;21.206;2023-11-21T00:22:12;97331.31;;;6.32;80.93
76195;BME280;64964;48.694;21.206;2023-11-21T00:24:38;97311.06;;;6.16;80.96
76195;BME280;64964;48.694;21.206;2023-11-21T00:27:03;97348.66;;;6.24;80.66
76195;BME280;64964;48.694;21.206;2023-11-21T00:29:28;97346.03;;;6.24;80.75
76195;BME280;64964;48.694;21.206;2023-11-21T00:31:54;97343.88;;;6.12;80.87
76195;BME280;64964;48.694;21.206;2023-11-21T00:34:19;97336.44;;;5.99;81.17
76195;BME280;64964;48.694;21.206;2023-11-21T00:36:44;97355.81;;;6.06;81.70
76195;BME280;64964;48.694;21.206;2023-11-21T00:39:10;97355.50;;;6.09;81.73
76195;BME280;64964;48.694;21.206;2023-11-21T00:41:36;97347.78;;;6.08;81.65
76195;BME280;64964;48.694;21.206;2023-11-21T00:44:02;97340.22;;;6.05;81.39
76195;BME280;64964;48.694;21.206;2023-11-21T00:46:27;97347.94;;;6.06;81.11
76195;BME280;64964;48.694;21.206;2023-11-21T00:48:54;97347.94;;;6.06;80.99
76195;BME280;64964;48.694;21.206;2023-11-21T00:51:20;97356.78;;;6.05;81.06
76195;BME280;64964;48.694;21.206;2023-11-21T00:53:46;97366.41;;;5.96;81.61
76195;BME280;64964;48.694;21.206;2023-11-21T00:56:11;97356.38;;;5.92;81.62
76195;BME280;64964;48.694;21.206;2023-11-21T00:58:37;97360.66;;;5.93;81.74
76195;BME280;64964;48.694;21.206;2023-11-21T01:01:02;97365.75;;;5.94;81.93
76195;BME280;64964;48.694;21.206;2023-11-21T01:03:28;97362.06;;;5.87;82.22
76195;BME280;64964;48.694;21.206;2023-11-21T01:05:54;97363.41;;;5.91;82.13
76195;BME280;64964;48.694;21.206;2023-11-21T01:08:19;97359.84;;;5.92;82.57
76195;BME280;64964;48.694;21.206;2023-11-21T01:10:45;97331.88;;;5.83;81.94
76195;BME280;64964;48.694;21.206;2023-11-21T01:13:10;97353.63;;;6.02;81.87
76195;BME280;64964;48.694;21.206;2023-11-21T01:15:36;97357.97;;;6.11;81.72
76195;BME280;64964;48.694;21.206;2023-11-21T01:18:01;97357.50;;;6.15;81.68
76195;BME280;64964;48.694;21.206;2023-11-21T01:20:27;97323.44;;;5.97;81.78
76195;BME280;64964;48.694;21.206;2023-11-21T01:22:52;97311.47;;;5.95;81.98
76195;BME280;64964;48.694;21.206;2023-11-21T01:25:19;97354.75;;;6.25;81.15
76195;BME280;64964;48.694;21.206;2023-11-21T01:27:44;97352.41;;;6.22;80.50
76195;BME280;64964;48.694;21.206;2023-11-21T01:30:10;97352.59;;;6.20;81.01
76195;BME280;64964;48.694;21.206;2023-11-21T01:32:39;97339.78;;;6.17;81.13
76195;BME280;64964;48.694;21.206;2023-11-21T01:35:05;97352.59;;;6.20;81.51
76195;BME280;64964;48.694;21.206;2023-11-21T01:37:32;97339.94;;;6.16;81.01
76195;BME280;64964;48.694;21.206;2023-11-21T01:39:58;97352.56;;;6.12;81.48
76195;BME280;64964;48.694;21.206;2023-11-21T01:42:24;97336.59;;;6.06;81.81
76195;BME280;64964;48.694;21.206;2023-11-21T01:44:50;97333.50;;;6.02;81.32
76195;BME280;64964;48.694;21.206;2023-11-21T01:47:16;97339.56;;;6.03;81.32
76195;BME280;64964;48.694;21.206;2023-11-21T01:49:44;97293.97;;;5.69;81.65
76195;BME280;64964;48.694;21.206;2023-11-21T01:52:11;97334.78;;;5.98;81.73
76195;BME280;64964;48.694;21.206;2023-11-21T01:54:37;97319.66;;;5.92;81.70
76195;BME280;64964;48.694;21.206;2023-11-21T01:57:03;97334.63;;;5.99;81.57
76195;BME280;64964;48.694;21.206;2023-11-21T01:59:35;97332.31;;;5.96;81.64
76195;BME280;64964;48.694;21.206;2023-11-21T02:02:06;97332.78;;;5.92;81.80
76195;BME280;64964;48.694;21.206;2023-11-21T02:04:33;97325.19;;;5.89;82.04
76195;BME280;64964;48.694;21.206;2023-11-21T02:06:59;97327.66;;;5.90;81.80
76195;BME280;64964;48.694;21.206;2023-11-21T02:09:28;97323.38;;;5.81;81.57
76195;BME280;64964;48.694;21.206;2023-11-21T02:11:55;97325.13;;;5.81;81.98
76195;BME280;64964;48.694;21.206;2023-11-21T02:14:21;97322.03;;;5.77;82.34
76195;BME280;64964;48.694;21.206;2023-11-21T02:16:51;97327.31;;;5.85;82.48
76195;BME280;64964;48.694;21.206;2023-11-21T02:19:22;97334.84;;;5.88;81.88
76195;BME280;64964;48.694;21.206;2023-11-21T02:21:53;97329.47;;;5.90;82.18
76195;BME280;64964;48.694;21.206;2023-11-21T02:24:22;97325.72;;;5.92;82.25
76195;BME280;64964;48.694;21.206;2023-11-21T02:26:48;97317.84;;;5.92;82.27
76195;BME280;64964;48.694;21.206;2023-11-21T02:29:19;97333.50;;;6.02;81.78
76195;BME280;64964;48.694;21.206;2023-11-21T02:31:51;97329.59;;;6.06;81.71
76195;BME280;64964;48.694;21.206;2023-11-21T02:34:20;97322.53;;;6.07;81.50
76195;BME280;64964;48.694;21.206;2023-11-21T02:36:46;97323.84;;;6.11;81.72
76195;BME280;64964;48.694;21.206;2023-11-21T02:39:15;97326.16;;;6.14;81.54
76195;BME280;64964;48.694;21.206;2023-11-21T02:41:42;97310.88;;;6.09;81.35
76195;BME280;64964;48.694;21.206;2023-11-21T02:44:08;97328.16;;;6.20;81.09
76195;BME280;64964;48.694;21.206;2023-11-21T02:46:34;97324.72;;;6.19;81.33
76195;BME280;64964;48.694;21.206;2023-11-21T02:49:03;97330.78;;;6.20;81.39
76195;BME280;64964;48.694;21.206;2023-11-21T02:51:29;97333.91;;;6.23;81.36
76195;BME280;64964;48.694;21.206;2023-11-21T02:53:56;97338.19;;;6.24;81.12
76195;BME280;64964;48.694;21.206;2023-11-21T02:56:25;97346.22;;;6.23;80.61
76195;BME280;64964;48.694;21.206;2023-11-21T02:58:51;97344.00;;;6.10;80.98
76195;BME280;64964;48.694;21.206;2023-11-21T03:01:16;97338.28;;;6.07;81.36
76195;BME280;64964;48.694;21.206;2023-11-21T03:03:42;97346.97;;;6.07;81.39
76195;BME280;64964;48.694;21.206;2023-11-21T03:06:07;97334.97;;;6.05;81.33
76195;BME280;64964;48.694;21.206;2023-11-21T03:08:33;97349.94;;;6.12;81.17
76195;BME280;64964;48.694;21.206;2023-11-21T03:10:58;97348.94;;;6.13;81.45
76195;BME280;64964;48.694;21.206;2023-11-21T03:13:24;97343.88;;;6.12;81.86
76195;BME280;64964;48.694;21.206;2023-11-21T03:15:49;97349.78;;;6.22;81.74
76195;BME280;64964;48.694;21.206;2023-11-21T03:18:15;97340.97;;;6.23;81.13
76195;BME280;64964;48.694;21.206;2023-11-21T03:20:40;97338.19;;;6.24;81.35
76195;BME280;64964;48.694;21.206;2023-11-21T03:23:06;97343.59;;;6.23;81.36
76195;BME280;64964;48.694;21.206;2023-11-21T03:25:32;97339.31;;;6.22;81.41
76195;BME280;64964;48.694;21.206;2023-11-21T03:27:57;97338.19;;;6.24;81.53
76195;BME280;64964;48.694;21.206;2023-11-21T03:30:23;97338.00;;;6.26;81.31
76195;BME280;64964;48.694;21.206;2023-11-21T03:32:48;97342.31;;;6.27;81.13
76195;BME280;64964;48.694;21.206;2023-11-21T03:35:14;97339.81;;;6.26;81.22
76195;BME280;64964;48.694;21.206;2023-11-21T03:37:39;97343.25;;;6.26;81.39
76195;BME280;64964;48.694;21.206;2023-11-21T03:40:07;97341.94;;;6.22;81.30
76195;BME280;64964;48.694;21.206;2023-11-21T03:42:34;97345.88;;;6.26;81.20
76195;BME280;64964;48.694;21.206;2023-11-21T03:44:59;97347.38;;;6.29;81.16
76195;BME280;64964;48.694;21.206;2023-11-21T03:47:26;97307.41;;;6.01;81.00
76195;BME280;64964;48.694;21.206;2023-11-21T03:49:51;97359.50;;;6.30;80.90
76195;BME280;64964;48.694;21.206;2023-11-21T03:52:17;97362.13;;;6.30;81.20
76195;BME280;64964;48.694;21.206;2023-11-21T03:54:42;97346.25;;;6.31;80.58
76195;BME280;64964;48.694;21.206;2023-11-21T03:57:08;97343.47;;;6.33;80.50
76195;BME280;64964;48.694;21.206;2023-11-21T03:59:34;97344.28;;;6.33;80.67
76195;BME280;64964;48.694;21.206;2023-11-21T04:01:59;97329.00;;;6.29;80.63
76195;BME280;64964;48.694;21.206;2023-11-21T04:04:25;97333.94;;;6.32;80.64
76195;BME280;64964;48.694;21.206;2023-11-21T04:06:50;97338.03;;;6.34;80.46
76195;BME280;64964;48.694;21.206;2023-11-21T04:09:17;97339.03;;;6.33;80.54
76195;BME280;64964;48.694;21.206;2023-11-21T04:11:42;97346.41;;;6.38;80.32
76195;BME280;64964;48.694;21.206;2023-11-21T04:14:10;97336.22;;;6.35;80.23
76195;BME280;64964;48.694;21.206;2023-11-21T04:16:36;97331.50;;;6.38;80.40
76195;BME280;64964;48.694;21.206;2023-11-21T04:19:01;97331.50;;;6.38;80.47
76195;BME280;64964;48.694;21.206;2023-11-21T04:21:26;97328.72;;;6.40;80.49
76195;BME280;64964;48.694;21.206;2023-11-21T04:23:52;97319.84;;;6.33;80.26
76195;BME280;64964;48.694;21.206;2023-11-21T04:26:17;97313.44;;;6.27;80.61
76195;BME280;64964;48.694;21.206;2023-11-21T04:28:43;97337.72;;;6.37;80.16
76195;BME280;64964;48.694;21.206;2023-11-21T04:31:08;97335.09;;;6.37;80.67
76195;BME280;64964;48.694;21.206;2023-11-21T04:33:34;97339.34;;;6.38;80.65
76195;BME280;64964;48.694;21.206;2023-11-21T04:35:59;97334.78;;;6.40;80.92
76195;BME280;64964;48.694;21.206;2023-11-21T04:38:24;97344.47;;;6.40;80.56
76195;BME280;64964;48.694;21.206;2023-11-21T04:40:50;97319.16;;;6.31;80.79
76195;BME280;64964;48.694;21.206;2023-11-21T04:43:15;97282.53;;;6.13;80.71
76195;BME280;64964;48.694;21.206;2023-11-21T04:45:41;97322.28;;;6.34;80.88
76195;BME280;64964;48.694;21.206;2023-11-21T04:48:07;97326.09;;;6.40;80.77
76195;BME280;64964;48.694;21.206;2023-11-21T04:50:33;97287.28;;;6.17;80.95
76195;BME280;64964;48.694;21.206;2023-11-21T04:52:59;97326.09;;;6.40;80.99
76195;BME280;64964;48.694;21.206;2023-11-21T04:55:24;97308.81;;;6.29;80.91
76195;BME280;64964;48.694;21.206;2023-11-21T04:57:53;97330.03;;;6.36;80.90
76195;BME280;64964;48.694;21.206;2023-11-21T05:00:18;97336.59;;;6.40;80.85
76195;BME280;64964;48.694;21.206;2023-11-21T05:02:45;97345.28;;;6.40;80.87
76195;BME280;64964;48.694;21.206;2023-11-21T05:05:10;97353.31;;;6.39;80.92
76195;BME280;64964;48.694;21.206;2023-11-21T05:07:36;97347.88;;;6.32;81.17
76195;BME280;64964;48.694;21.206;2023-11-21T05:10:01;97358.56;;;6.39;80.89
76195;BME280;64964;48.694;21.206;2023-11-21T05:12:31;97353.31;;;6.39;81.10
76195;BME280;64964;48.694;21.206;2023-11-21T05:15:04;97353.47;;;6.37;81.12
76195;BME280;64964;48.694;21.206;2023-11-21T05:17:33;97359.38;;;6.39;80.85
76195;BME280;64964;48.694;21.206;2023-11-21T05:19:59;97361.03;;;6.40;81.01
76195;BME280;64964;48.694;21.206;2023-11-21T05:22:28;97368.91;;;6.40;81.25
76195;BME280;64964;48.694;21.206;2023-11-21T05:24:54;97370.72;;;6.40;80.99
76195;BME280;64964;48.694;21.206;2023-11-21T05:27:19;97371.38;;;6.42;81.00
76195;BME280;64964;48.694;21.206;2023-11-21T05:29:44;97341.31;;;6.28;80.86
76195;BME280;64964;48.694;21.206;2023-11-21T05:32:10;97360.22;;;6.40;81.08
76195;BME280;64964;48.694;21.206;2023-11-21T05:34:35;97365.66;;;6.46;81.34
76195;BME280;64964;48.694;21.206;2023-11-21T05:37:01;97365.66;;;6.46;81.16
76195;BME280;64964;48.694;21.206;2023-11-21T05:39:26;97368.28;;;6.46;81.29
76195;BME280;64964;48.694;21.206;2023-11-21T05:41:53;97358.41;;;6.40;81.27
76195;BME280;64964;48.694;21.206;2023-11-21T05:44:19;97363.19;;;6.45;81.36
76195;BME280;64964;48.694;21.206;2023-11-21T05:46:44;97356.94;;;6.46;81.34
76195;BME280;64964;48.694;21.206;2023-11-21T05:49:10;97361.38;;;6.45;81.59
76195;BME280;64964;48.694;21.206;2023-11-21T05:51:36;97375.16;;;6.47;81.30
76195;BME280;64964;48.694;21.206;2023-11-21T05:54:02;97373.38;;;6.48;81.29
76195;BME280;64964;48.694;21.206;2023-11-21T05:56:27;97377.78;;;6.47;81.62
76195;BME280;64964;48.694;21.206;2023-11-21T05:58:53;97387.47;;;6.47;81.47
76195;BME280;64964;48.694;21.206;2023-11-21T06:01:18;97394.38;;;6.48;81.56
76195;BME280;64964;48.694;21.206;2023-11-21T06:03:44;97387.63;;;6.45;81.36
76195;BME280;64964;48.694;21.206;2023-11-21T06:06:10;97396.84;;;6.49;81.32
76195;BME280;64964;48.694;21.206;2023-11-21T06:08:36;97406.38;;;6.51;81.28
76195;BME280;64964;48.694;21.206;2023-11-21T06:11:01;97418.84;;;6.48;81.44
76195;BME280;64964;48.694;21.206;2023-11-21T06:13:26;97418.16;;;6.46;81.30
76195;BME280;64964;48.694;21.206;2023-11-21T06:15:52;97436.56;;;6.55;81.59
76195;BME280;64964;48.694;21.206;2023-11-21T06:18:18;97441.53;;;6.58;81.45
76195;BME280;64964;48.694;21.206;2023-11-21T06:20:45;97443.16;;;6.59;81.69
76195;BME280;64964;48.694;21.206;2023-11-21T06:23:11;97441.22;;;6.61;81.51
76195;BME280;64964;48.694;21.206;2023-11-21T06:25:36;97438.91;;;6.58;81.77
76195;BME280;64964;48.694;21.206;2023-11-21T06:28:02;97439.50;;;6.52;81.41
76195;BME280;64964;48.694;21.206;2023-11-21T06:30:27;97448.41;;;6.59;81.71
76195;BME280;64964;48.694;21.206;2023-11-21T06:32:54;97446.91;;;6.56;81.39
76195;BME280;64964;48.694;21.206;2023-11-21T06:35:20;97447.59;;;6.58;81.74
76195;BME280;64964;48.694;21.206;2023-11-21T06:37:45;97448.41;;;6.59;81.88
76195;BME280;64964;48.694;21.206;2023-11-21T06:40:13;97449.22;;;6.59;81.33
76195;BME280;64964;48.694;21.206;2023-11-21T06:42:40;97457.13;;;6.59;81.76
76195;BME280;64964;48.694;21.206;2023-11-21T06:45:07;97465.97;;;6.58;81.68
76195;BME280;64964;48.694;21.206;2023-11-21T06:47:32;97452.28;;;6.46;81.78
76195;BME280;64964;48.694;21.206;2023-11-21T06:49:58;97457.06;;;6.51;81.53
76195;BME280;64964;48.694;21.206;2023-11-21T06:52:23;97472.72;;;6.61;81.47
76195;BME280;64964;48.694;21.206;2023-11-21T06:54:48;97473.56;;;6.61;81.61
76195;BME280;64964;48.694;21.206;2023-11-21T06:57:17;97472.56;;;6.62;81.81
76195;BME280;64964;48.694;21.206;2023-11-21T06:59:43;97479.31;;;6.65;81.81
76195;BME280;64964;48.694;21.206;2023-11-21T07:02:08;97479.78;;;6.68;81.37
76195;BME280;64964;48.694;21.206;2023-11-21T07:04:35;97475.19;;;6.62;81.16
76195;BME280;64964;48.694;21.206;2023-11-21T07:07:02;97488.53;;;6.69;81.14
76195;BME280;64964;48.694;21.206;2023-11-21T07:09:27;97482.28;;;6.70;81.30
76195;BME280;64964;48.694;21.206;2023-11-21T07:11:53;97482.13;;;6.71;81.42
76195;BME280;64964;48.694;21.206;2023-11-21T07:14:18;97468.97;;;6.71;81.21
76195;BME280;64964;48.694;21.206;2023-11-21T07:16:45;97470.63;;;6.72;81.38
76195;BME280;64964;48.694;21.206;2023-11-21T07:19:11;97465.22;;;6.74;81.19
76195;BME280;64964;48.694;21.206;2023-11-21T07:21:37;97465.72;;;6.69;81.16
76195;BME280;64964;48.694;21.206;2023-11-21T07:24:03;97460.50;;;6.78;80.94
76195;BME280;64964;48.694;21.206;2023-11-21T07:26:30;97453.22;;;6.71;80.87
76195;BME280;64964;48.694;21.206;2023-11-21T07:28:56;97456.06;;;6.78;81.28
76195;BME280;64964;48.694;21.206;2023-11-21T07:31:24;97436.44;;;6.64;81.02
76195;BME280;64964;48.694;21.206;2023-11-21T07:33:50;97440.59;;;6.75;81.05
76195;BME280;64964;48.694;21.206;2023-11-21T07:36:16;97458.72;;;6.86;80.81
76195;BME280;64964;48.694;21.206;2023-11-21T07:38:46;97466.41;;;6.88;80.56
76195;BME280;64964;48.694;21.206;2023-11-21T07:41:11;97454.41;;;6.85;80.83
76195;BME280;64964;48.694;21.206;2023-11-21T07:43:36;97456.06;;;6.86;80.87
76195;BME280;64964;48.694;21.206;2023-11-21T07:46:02;97459.22;;;6.90;80.52
76195;BME280;64964;48.694;21.206;2023-11-21T07:48:32;97454.09;;;6.88;80.36
76195;BME280;64964;48.694;21.206;2023-11-21T07:50:58;97467.09;;;6.90;80.48
76195;BME280;64964;48.694;21.206;2023-11-21T07:53:26;97471.38;;;6.91;80.38
76195;BME280;64964;48.694;21.206;2023-11-21T07:55:54;97462.66;;;6.90;80.38
76195;BME280;64964;48.694;21.206;2023-11-21T07:58:19;97467.75;;;6.92;80.61
76195;BME280;64964;48.694;21.206;2023-11-21T08:00:45;97475.16;;;6.96;80.54
76195;BME280;64964;48.694;21.206;2023-11-21T08:03:10;97479.41;;;6.97;80.40
76195;BME280;64964;48.694;21.206;2023-11-21T08:05:36;97479.09;;;7.01;80.46
76195;BME280;64964;48.694;21.206;2023-11-21T08:08:02;97470.56;;;6.98;80.25
76195;BME280;64964;48.694;21.206;2023-11-21T08:10:27;97480.44;;;7.05;80.67
76195;BME280;64964;48.694;21.206;2023-11-21T08:12:52;97462.50;;;6.92;80.56
76195;BME280;64964;48.694;21.206;2023-11-21T08:15:19;97484.06;;;7.04;80.21
76195;BME280;64964;48.694;21.206;2023-11-21T08:17:45;97478.63;;;7.05;80.47
76195;BME280;64964;48.694;21.206;2023-11-21T08:20:11;97465.78;;;7.02;80.47
76195;BME280;64964;48.694;21.206;2023-11-21T08:22:37;97475.00;;;7.06;80.06
76195;BME280;64964;48.694;21.206;2023-11-21T08:25:02;97484.56;;;7.07;80.37
76195;BME280;64964;48.694;21.206;2023-11-21T08:27:29;97482.75;;;7.08;80.41
76195;BME280;64964;48.694;21.206;2023-11-21T08:29:55;97488.50;;;7.11;80.51
76195;BME280;64964;48.694;21.206;2023-11-21T08:32:21;97469.75;;;7.06;80.35
76195;BME280;64964;48.694;21.206;2023-11-21T08:34:47;97470.44;;;7.08;80.56
76195;BME280;64964;48.694;21.206;2023-11-21T08:37:16;97475.53;;;7.18;80.44
76195;BME280;64964;48.694;21.206;2023-11-21T08:39:41;97479.66;;;7.20;80.30
76195;BME280;64964;48.694;21.206;2023-11-21T08:42:07;97470.59;;;7.23;80.05
76195;BME280;64964;48.694;21.206;2023-11-21T08:44:33;97459.75;;;7.18;79.88
76195;BME280;64964;48.694;21.206;2023-11-21T08:46:58;97458.31;;;7.23;79.89
76195;BME280;64964;48.694;21.206;2023-11-21T08:49:24;97463.22;;;7.27;79.54
76195;BME280;64964;48.694;21.206;2023-11-21T08:51:51;97470.16;;;7.28;79.86
76195;BME280;64964;48.694;21.206;2023-11-21T08:54:16;97473.44;;;7.30;79.90
76195;BME280;64964;48.694;21.206;2023-11-21T08:56:43;97474.94;;;7.32;79.92
76195;BME280;64964;48.694;21.206;2023-11-21T08:59:08;97484.28;;;7.35;79.85
76195;BME280;64964;48.694;21.206;2023-11-21T09:01:34;97487.72;;;7.35;79.67
76195;BME280;64964;48.694;21.206;2023-11-21T09:03:59;97489.41;;;7.36;79.58
76195;BME280;64964;48.694;21.206;2023-11-21T09:06:24;97488.72;;;7.34;79.59
76195;BME280;64964;48.694;21.206;2023-11-21T09:08:50;97489.41;;;7.36;79.61
76195;BME280;64964;48.694;21.206;2023-11-21T09:11:15;97492.66;;;7.38;79.75
76195;BME280;64964;48.694;21.206;2023-11-21T09:13:41;97485.94;;;7.36;79.37
76195;BME280;64964;48.694;21.206;2023-11-21T09:16:06;97493.84;;;7.36;79.42
76195;BME280;64964;48.694;21.206;2023-11-21T09:18:32;97478.50;;;7.31;79.52
76195;BME280;64964;48.694;21.206;2023-11-21T09:20:57;97463.06;;;7.20;79.28
76195;BME280;64964;48.694;21.206;2023-11-21T09:23:24;97498.44;;;7.42;79.45
76195;BME280;64964;48.694;21.206;2023-11-21T09:25:49;97497.63;;;7.41;79.38
76195;BME280;64964;48.694;21.206;2023-11-21T09:28:17;97493.31;;;7.32;79.35
76195;BME280;64964;48.694;21.206;2023-11-21T09:30:43;97504.00;;;7.39;79.54
76195;BME280;64964;48.694;21.206;2023-11-21T09:33:08;97503.88;;;7.40;79.18
76195;BME280;64964;48.694;21.206;2023-11-21T09:35:37;97472.59;;;7.21;79.45
76195;BME280;64964;48.694;21.206;2023-11-21T09:38:03;97491.19;;;7.44;78.88
76195;BME280;64964;48.694;21.206;2023-11-21T09:40:30;97483.13;;;7.37;78.93
76195;BME280;64964;48.694;21.206;2023-11-21T09:42:57;97481.34;;;7.38;79.28
76195;BME280;64964;48.694;21.206;2023-11-21T09:45:28;97428.19;;;7.02;79.33
76195;BME280;64964;48.694;21.206;2023-11-21T09:47:55;97461.09;;;7.22;79.70
76195;BME280;64964;48.694;21.206;2023-11-21T09:50:21;97482.00;;;7.40;79.28
76195;BME280;64964;48.694;21.206;2023-11-21T09:53:13;97455.00;;;7.21;79.55
76195;BME280;64964;48.694;21.206;2023-11-21T09:55:42;97461.41;;;7.27;79.21
76195;BME280;64964;48.694;21.206;2023-11-21T09:58:09;97479.53;;;7.46;79.36
76195;BME280;64964;48.694;21.206;2023-11-21T10:00:42;97443.34;;;7.24;79.68
76195;BME280;64964;48.694;21.206;2023-11-21T10:03:08;97482.66;;;7.50;79.27
76195;BME280;64964;48.694;21.206;2023-11-21T10:05:35;97477.41;;;7.50;79.44
76195;BME280;64964;48.694;21.206;2023-11-21T10:08:00;97465.22;;;7.41;79.32
76195;BME280;64964;48.694;21.206;2023-11-21T10:10:27;97492.53;;;7.56;78.95
76195;BME280;64964;48.694;21.206;2023-11-21T10:12:56;97474.28;;;7.46;79.04
76195;BME280;64964;48.694;21.206;2023-11-21T10:15:22;97474.94;;;7.48;79.02
76195;BME280;64964;48.694;21.206;2023-11-21T10:17:52;97490.75;;;7.57;78.77
76195;BME280;64964;48.694;21.206;2023-11-21T10:20:19;97497.47;;;7.59;79.02
76195;BME280;64964;48.694;21.206;2023-11-21T10:22:45;97484.00;;;7.54;79.08
76195;BME280;64964;48.694;21.206;2023-11-21T10:25:11;97482.00;;;7.56;79.20
76195;BME280;64964;48.694;21.206;2023-11-21T10:27:40;97490.56;;;7.66;79.35
76195;BME280;64964;48.694;21.206;2023-11-21T10:30:09;97471.34;;;7.58;79.04
76195;BME280;64964;48.694;21.206;2023-11-21T10:32:39;97464.56;;;7.55;78.82
76195;BME280;64964;48.694;21.206;2023-11-21T10:35:06;97492.03;;;7.69;78.95
76195;BME280;64964;48.694;21.206;2023-11-21T10:37:39;97485.97;;;7.68;78.77
76195;BME280;64964;48.694;21.206;2023-11-21T10:40:11;97473.97;;;7.58;78.50
76195;BME280;64964;48.694;21.206;2023-11-21T10:42:40;97487.13;;;7.66;78.48
76195;BME280;64964;48.694;21.206;2023-11-21T10:45:08;97479.22;;;7.58;78.91
76195;BME280;64964;48.694;21.206;2023-11-21T10:47:40;97480.53;;;7.62;77.78
76195;BME280;64964;48.694;21.206;2023-11-21T10:50:07;97474.28;;;7.55;78.66
76195;BME280;64964;48.694;21.206;2023-11-21T10:52:39;97455.72;;;7.40;78.30
76195;BME280;64964;48.694;21.206;2023-11-21T10:55:20;97461.94;;;7.39;78.62
76195;BME280;64964;48.694;21.206;2023-11-21T10:57:49;97467.88;;;7.49;78.54
76195;BME280;64964;48.694;21.206;2023-11-21T11:00:16;97462.94;;;7.54;79.32
76195;BME280;64964;48.694;21.206;2023-11-21T11:02:47;97458.00;;;7.59;79.34
76195;BME280;64964;48.694;21.206;2023-11-21T11:05:15;97467.03;;;7.65;78.51
76195;BME280;64964;48.694;21.206;2023-11-21T11:07:44;97460.97;;;7.56;78.39
76195;BME280;64964;48.694;21.206;2023-11-21T11:10:10;97464.91;;;7.60;78.13
76195;BME280;64964;48.694;21.206;2023-11-21T11:12:40;97443.84;;;7.44;78.10
76195;BME280;64964;48.694;21.206;2023-11-21T11:15:07;97458.66;;;7.45;78.43
76195;BME280;64964;48.694;21.206;2023-11-21T11:17:36;97455.84;;;7.38;78.50
76195;BME280;64964;48.694;21.206;2023-11-21T11:20:04;97452.91;;;7.33;78.70
76195;BME280;64964;48.694;21.206;2023-11-21T11:22:37;97466.22;;;7.32;79.05
76195;BME280;64964;48.694;21.206;2023-11-21T11:28:09;97424.94;;;7.08;79.61
76195;BME280;64964;48.694;21.206;2023-11-21T11:33:12;97442.69;;;7.30;79.40
76195;BME280;64964;48.694;21.206;2023-11-21T11:38:32;97464.44;;;7.48;79.10
76195;BME280;64964;48.694;21.206;2023-11-21T11:41:01;97461.28;;;7.45;79.38
76195;BME280;64964;48.694;21.206;2023-11-21T11:43:29;97463.75;;;7.55;79.17
76195;BME280;64964;48.694;21.206;2023-11-21T11:45:58;97451.28;;;7.48;78.96
76195;BME280;64964;48.694;21.206;2023-11-21T11:48:28;97448.66;;;7.48;79.08
76195;BME280;64964;48.694;21.206;2023-11-21T11:51:05;97423.31;;;7.39;78.94
76195;BME280;64964;48.694;21.206;2023-11-21T11:53:36;97459.81;;;7.59;79.01
76195;BME280;64964;48.694;21.206;2023-11-21T11:56:29;97469.19;;;7.61;78.28
76195;BME280;64964;48.694;21.206;2023-11-21T11:58:58;97415.75;;;7.28;78.55
76195;BME280;64964;48.694;21.206;2023-11-21T12:01:26;97468.38;;;7.53;78.63
76195;BME280;64964;48.694;21.206;2023-11-21T12:06:36;97465.88;;;7.43;78.60
76195;BME280;64964;48.694;21.206;2023-11-21T12:09:02;97468.84;;;7.40;79.44
76195;BME280;64964;48.694;21.206;2023-11-21T12:11:31;97471.81;;;7.37;78.97
76195;BME280;64964;48.694;21.206;2023-11-21T12:13:57;97466.84;;;7.34;79.05
76195;BME280;64964;48.694;21.206;2023-11-21T12:16:25;97449.25;;;7.26;79.05
76195;BME280;64964;48.694;21.206;2023-11-21T12:18:52;97456.34;;;7.34;79.40
76195;BME280;64964;48.694;21.206;2023-11-21T12:21:20;97444.81;;;7.27;79.50
76195;BME280;64964;48.694;21.206;2023-11-21T12:23:46;97427.41;;;7.17;79.67
76195;BME280;64964;48.694;21.206;2023-11-21T12:26:13;97445.31;;;7.30;79.57
76195;BME280;64964;48.694;21.206;2023-11-21T12:28:39;97429.22;;;7.25;79.69
76195;BME280;64964;48.694;21.206;2023-11-21T12:31:05;97461.44;;;7.52;79.52
76195;BME280;64964;48.694;21.206;2023-11-21T12:33:34;97462.94;;;7.62;79.34
76195;BME280;64964;48.694;21.206;2023-11-21T12:36:00;97463.59;;;7.64;79.07
76195;BME280;64964;48.694;21.206;2023-11-21T12:38:33;97453.56;;;7.60;79.55
76195;BME280;64964;48.694;21.206;2023-11-21T12:40:59;97469.03;;;7.71;79.20
76195;BME280;64964;48.694;21.206;2023-11-21T12:43:24;97463.28;;;7.76;79.55
76195;BME280;64964;48.694;21.206;2023-11-21T12:45:49;97468.22;;;7.79;79.19
76195;BME280;64964;48.694;21.206;2023-11-21T12:48:15;97465.91;;;7.76;78.68
76195;BME280;64964;48.694;21.206;2023-11-21T12:50:42;97462.63;;;7.73;78.96
76195;BME280;64964;48.694;21.206;2023-11-21T12:53:11;97471.84;;;7.78;78.89
76195;BME280;64964;48.694;21.206;2023-11-21T12:55:38;97470.84;;;7.79;79.02
76195;BME280;64964;48.694;21.206;2023-11-21T12:58:09;97465.72;;;7.69;78.54
76195;BME280;64964;48.694;21.206;2023-11-21T13:00:40;97430.88;;;7.42;78.29
76195;BME280;64964;48.694;21.206;2023-11-21T13:03:08;97473.16;;;7.65;78.88
76195;BME280;64964;48.694;21.206;2023-11-21T13:05:38;97466.91;;;7.66;79.42
76195;BME280;64964;48.694;21.206;2023-11-21T13:08:06;97466.56;;;7.69;79.04